Main page
METAR-TAF:

METAR-TAF

Airports :

Vodochody Airport

Prague, Czech Republic

latitude: 50-12-59N, longitude: 014-23-42E, elevation: 280 m

Current weather observation

The report was made 21 hours and 46 minutes ago, at 15:00 UTC
Wind 4 kt from the East
Temperature 18°C
Humidity 52%
Pressure 1019 hPa
Visibility 10 km or more
no clouds below 1500 m and no cumulonimbus

METAR: LKVO 171500Z 10004KT CAVOK 18/08 Q1019

Time: 14:46 (12:46 UTC)


TAF: missing

Weather observations and forecasts of more than 4000 airports (METAR and TAF reports).

The available stations are represented by yellow and red dots on the map.

Hover mouse over dot to see the name of the station.

Then click to see weather observations and forecasts.

To change the map : click on the green buttons with a black cross to zoom in, on the green button with a dash to zoom out, or on the green arrows for adjacent maps.


METAR-TAF: